sensor_id;sensor_type;location;lat;lon;timestamp;P1;durP1;ratioP1;P2;durP2;ratioP2
1446;SDS011;717;51.522;7.266;2022-10-03T00:00:41;6.55;;;2.28;;
1446;SDS011;717;51.522;7.266;2022-10-03T00:03:29;8.70;;;2.83;;
1446;SDS011;717;51.522;7.266;2022-10-03T00:06:05;6.47;;;2.85;;
1446;SDS011;717;51.522;7.266;2022-10-03T00:08:49;7.68;;;2.65;;
1446;SDS011;717;51.522;7.266;2022-10-03T00:11:31;7.97;;;2.42;;
1446;SDS011;717;51.522;7.266;2022-10-03T00:14:04;8.57;;;2.60;;
1446;SDS011;717;51.522;7.266;2022-10-03T00:16:42;6.22;;;2.28;;
1446;SDS011;717;51.522;7.266;2022-10-03T00:19:16;5.97;;;2.42;;
1446;SDS011;717;51.522;7.266;2022-10-03T00:21:56;7.57;;;2.53;;
1446;SDS011;717;51.522;7.266;2022-10-03T00:24:33;10.45;;;2.90;;
1446;SDS011;717;51.522;7.266;2022-10-03T00:27:11;8.45;;;2.53;;
1446;SDS011;717;51.522;7.266;2022-10-03T00:32:43;5.75;;;2.47;;
1446;SDS011;717;51.522;7.266;2022-10-03T00:35:34;10.80;;;2.88;;
1446;SDS011;717;51.522;7.266;2022-10-03T00:38:18;8.63;;;2.70;;
1446;SDS011;717;51.522;7.266;2022-10-03T00:47:10;9.48;;;2.65;;
1446;SDS011;717;51.522;7.266;2022-10-03T00:50:19;8.02;;;2.63;;
1446;SDS011;717;51.522;7.266;2022-10-03T00:53:02;9.45;;;2.53;;
1446;SDS011;717;51.522;7.266;2022-10-03T00:55:41;10.07;;;2.83;;
1446;SDS011;717;51.522;7.266;2022-10-03T00:58:26;9.65;;;2.90;;
1446;SDS011;717;51.522;7.266;2022-10-03T01:01:02;8.82;;;3.15;;
1446;SDS011;717;51.522;7.266;2022-10-03T01:03:49;12.38;;;3.35;;
1446;SDS011;717;51.522;7.266;2022-10-03T01:06:29;9.80;;;2.78;;
1446;SDS011;717;51.522;7.266;2022-10-03T01:09:18;9.30;;;2.95;;
1446;SDS011;717;51.522;7.266;2022-10-03T01:11:59;8.15;;;2.92;;
1446;SDS011;717;51.522;7.266;2022-10-03T01:14:48;8.68;;;2.53;;
1446;SDS011;717;51.522;7.266;2022-10-03T01:17:26;7.18;;;2.47;;
1446;SDS011;717;51.522;7.266;2022-10-03T01:20:05;6.25;;;2.83;;
1446;SDS011;717;51.522;7.266;2022-10-03T01:25:57;10.40;;;3.50;;
1446;SDS011;717;51.522;7.266;2022-10-03T01:28:38;8.68;;;3.33;;
1446;SDS011;717;51.522;7.266;2022-10-03T01:31:27;12.90;;;3.83;;
1446;SDS011;717;51.522;7.266;2022-10-03T01:34:02;14.15;;;3.60;;
1446;SDS011;717;51.522;7.266;2022-10-03T01:36:37;10.70;;;3.33;;
1446;SDS011;717;51.522;7.266;2022-10-03T01:39:10;8.40;;;3.08;;
1446;SDS011;717;51.522;7.266;2022-10-03T01:41:44;11.45;;;3.72;;
1446;SDS011;717;51.522;7.266;2022-10-03T01:44:19;9.85;;;2.92;;
1446;SDS011;717;51.522;7.266;2022-10-03T01:46:49;8.75;;;3.17;;
1446;SDS011;717;51.522;7.266;2022-10-03T01:49:23;8.65;;;3.20;;
1446;SDS011;717;51.522;7.266;2022-10-03T01:51:55;4.95;;;3.13;;
1446;SDS011;717;51.522;7.266;2022-10-03T01:54:27;8.25;;;3.50;;
1446;SDS011;717;51.522;7.266;2022-10-03T01:57:01;9.20;;;3.60;;
1446;SDS011;717;51.522;7.266;2022-10-03T01:59:45;8.85;;;3.05;;
1446;SDS011;717;51.522;7.266;2022-10-03T02:02:18;10.65;;;3.63;;
1446;SDS011;717;51.522;7.266;2022-10-03T02:04:50;8.43;;;3.25;;
1446;SDS011;717;51.522;7.266;2022-10-03T02:07:24;8.43;;;3.53;;
1446;SDS011;717;51.522;7.266;2022-10-03T02:10:03;8.90;;;3.90;;
1446;SDS011;717;51.522;7.266;2022-10-03T02:12:38;12.63;;;4.32;;
1446;SDS011;717;51.522;7.266;2022-10-03T02:15:14;8.88;;;3.28;;
1446;SDS011;717;51.522;7.266;2022-10-03T02:17:50;12.35;;;3.75;;
1446;SDS011;717;51.522;7.266;2022-10-03T02:20:27;9.57;;;3.50;;
1446;SDS011;717;51.522;7.266;2022-10-03T02:22:59;10.65;;;3.95;;
1446;SDS011;717;51.522;7.266;2022-10-03T02:25:30;12.10;;;4.47;;
1446;SDS011;717;51.522;7.266;2022-10-03T02:31:27;22.00;;;4.55;;
1446;SDS011;717;51.522;7.266;2022-10-03T02:34:31;12.02;;;4.47;;
1446;SDS011;717;51.522;7.266;2022-10-03T02:37:26;10.63;;;4.22;;
1446;SDS011;717;51.522;7.266;2022-10-03T02:40:29;15.48;;;4.57;;
1446;SDS011;717;51.522;7.266;2022-10-03T02:49:15;10.52;;;4.55;;
1446;SDS011;717;51.522;7.266;2022-10-03T02:55:04;11.23;;;4.07;;
1446;SDS011;717;51.522;7.266;2022-10-03T03:04:21;8.38;;;4.18;;
1446;SDS011;717;51.522;7.266;2022-10-03T03:07:25;12.07;;;4.32;;
1446;SDS011;717;51.522;7.266;2022-10-03T03:13:19;10.88;;;3.75;;
1446;SDS011;717;51.522;7.266;2022-10-03T03:19:28;11.82;;;4.25;;
1446;SDS011;717;51.522;7.266;2022-10-03T03:22:18;10.88;;;4.22;;
1446;SDS011;717;51.522;7.266;2022-10-03T03:28:04;12.13;;;4.28;;
1446;SDS011;717;51.522;7.266;2022-10-03T03:30:46;10.00;;;4.15;;
1446;SDS011;717;51.522;7.266;2022-10-03T03:33:24;11.10;;;4.43;;
1446;SDS011;717;51.522;7.266;2022-10-03T03:35:59;11.63;;;4.68;;
1446;SDS011;717;51.522;7.266;2022-10-03T03:38:34;10.18;;;4.88;;
1446;SDS011;717;51.522;7.266;2022-10-03T03:44:05;13.38;;;4.68;;
1446;SDS011;717;51.522;7.266;2022-10-03T03:46:57;9.65;;;4.60;;
1446;SDS011;717;51.522;7.266;2022-10-03T03:49:41;10.35;;;4.13;;
1446;SDS011;717;51.522;7.266;2022-10-03T03:52:27;16.23;;;5.38;;
1446;SDS011;717;51.522;7.266;2022-10-03T03:55:19;14.38;;;4.65;;
1446;SDS011;717;51.522;7.266;2022-10-03T04:00:56;16.00;;;5.57;;
1446;SDS011;717;51.522;7.266;2022-10-03T04:03:39;12.25;;;5.90;;
1446;SDS011;717;51.522;7.266;2022-10-03T04:06:18;11.98;;;5.05;;
1446;SDS011;717;51.522;7.266;2022-10-03T04:09:11;13.15;;;5.63;;
1446;SDS011;717;51.522;7.266;2022-10-03T04:11:53;10.23;;;5.20;;
1446;SDS011;717;51.522;7.266;2022-10-03T04:14:34;13.57;;;5.93;;
1446;SDS011;717;51.522;7.266;2022-10-03T04:17:31;13.70;;;5.38;;
1446;SDS011;717;51.522;7.266;2022-10-03T04:20:28;13.90;;;6.03;;
1446;SDS011;717;51.522;7.266;2022-10-03T04:23:11;12.55;;;5.60;;
1446;SDS011;717;51.522;7.266;2022-10-03T04:25:59;16.38;;;5.63;;
1446;SDS011;717;51.522;7.266;2022-10-03T04:28:50;13.23;;;5.70;;
1446;SDS011;717;51.522;7.266;2022-10-03T04:31:50;16.42;;;5.63;;
1446;SDS011;717;51.522;7.266;2022-10-03T04:34:28;15.52;;;5.88;;
1446;SDS011;717;51.522;7.266;2022-10-03T04:39:49;15.07;;;6.22;;
1446;SDS011;717;51.522;7.266;2022-10-03T04:42:28;11.25;;;5.80;;
1446;SDS011;717;51.522;7.266;2022-10-03T04:45:18;13.13;;;6.10;;
1446;SDS011;717;51.522;7.266;2022-10-03T04:48:04;13.13;;;5.60;;
1446;SDS011;717;51.522;7.266;2022-10-03T04:50:41;10.90;;;5.78;;
1446;SDS011;717;51.522;7.266;2022-10-03T04:53:16;12.55;;;5.65;;
1446;SDS011;717;51.522;7.266;2022-10-03T04:55:49;19.67;;;6.22;;
1446;SDS011;717;51.522;7.266;2022-10-03T04:58:25;8.80;;;5.68;;
1446;SDS011;717;51.522;7.266;2022-10-03T05:01:02;17.02;;;6.07;;
1446;SDS011;717;51.522;7.266;2022-10-03T05:03:40;10.68;;;5.00;;
1446;SDS011;717;51.522;7.266;2022-10-03T05:06:18;11.57;;;5.20;;
1446;SDS011;717;51.522;7.266;2022-10-03T05:08:54;11.73;;;5.32;;
1446;SDS011;717;51.522;7.266;2022-10-03T05:11:33;12.77;;;5.22;;
1446;SDS011;717;51.522;7.266;2022-10-03T05:14:16;14.90;;;5.85;;
1446;SDS011;717;51.522;7.266;2022-10-03T05:16:53;11.18;;;5.03;;
1446;SDS011;717;51.522;7.266;2022-10-03T05:19:38;14.00;;;5.80;;
1446;SDS011;717;51.522;7.266;2022-10-03T05:22:15;12.90;;;5.18;;
1446;SDS011;717;51.522;7.266;2022-10-03T05:24:50;12.00;;;6.13;;
1446;SDS011;717;51.522;7.266;2022-10-03T05:27:28;15.55;;;5.25;;
1446;SDS011;717;51.522;7.266;2022-10-03T05:30:08;11.57;;;5.40;;
1446;SDS011;717;51.522;7.266;2022-10-03T05:32:44;12.20;;;6.65;;
1446;SDS011;717;51.522;7.266;2022-10-03T05:35:18;15.50;;;6.03;;
1446;SDS011;717;51.522;7.266;2022-10-03T05:37:59;13.57;;;6.25;;
1446;SDS011;717;51.522;7.266;2022-10-03T05:40:49;14.32;;;5.85;;
1446;SDS011;717;51.522;7.266;2022-10-03T05:43:32;12.85;;;5.63;;
1446;SDS011;717;51.522;7.266;2022-10-03T05:46:15;15.55;;;6.55;;
1446;SDS011;717;51.522;7.266;2022-10-03T05:48:47;15.93;;;6.10;;
1446;SDS011;717;51.522;7.266;2022-10-03T05:51:25;14.02;;;5.68;;
1446;SDS011;717;51.522;7.266;2022-10-03T05:57:13;14.38;;;5.72;;
1446;SDS011;717;51.522;7.266;2022-10-03T06:00:17;14.98;;;6.03;;
1446;SDS011;717;51.522;7.266;2022-10-03T06:06:02;10.85;;;6.38;;
1446;SDS011;717;51.522;7.266;2022-10-03T06:08:53;16.92;;;7.40;;
1446;SDS011;717;51.522;7.266;2022-10-03T06:11:43;10.93;;;5.95;;
1446;SDS011;717;51.522;7.266;2022-10-03T06:14:28;11.88;;;5.45;;
1446;SDS011;717;51.522;7.266;2022-10-03T06:20:18;13.68;;;6.72;;
1446;SDS011;717;51.522;7.266;2022-10-03T06:26:19;13.82;;;6.40;;
1446;SDS011;717;51.522;7.266;2022-10-03T06:29:19;12.73;;;6.00;;
1446;SDS011;717;51.522;7.266;2022-10-03T06:32:20;12.65;;;5.47;;
1446;SDS011;717;51.522;7.266;2022-10-03T06:35:21;13.65;;;6.10;;
1446;SDS011;717;51.522;7.266;2022-10-03T06:41:24;12.07;;;5.80;;
1446;SDS011;717;51.522;7.266;2022-10-03T06:44:26;13.70;;;5.88;;
1446;SDS011;717;51.522;7.266;2022-10-03T06:47:13;13.25;;;6.05;;
1446;SDS011;717;51.522;7.266;2022-10-03T06:53:02;10.68;;;5.65;;
1446;SDS011;717;51.522;7.266;2022-10-03T06:55:53;13.13;;;6.15;;
1446;SDS011;717;51.522;7.266;2022-10-03T06:58:47;18.73;;;7.28;;
1446;SDS011;717;51.522;7.266;2022-10-03T07:01:34;14.48;;;6.85;;
1446;SDS011;717;51.522;7.266;2022-10-03T07:04:21;17.45;;;7.30;;
1446;SDS011;717;51.522;7.266;2022-10-03T07:07:12;13.75;;;6.97;;
1446;SDS011;717;51.522;7.266;2022-10-03T07:10:10;16.30;;;7.03;;
1446;SDS011;717;51.522;7.266;2022-10-03T07:12:57;15.20;;;6.95;;
1446;SDS011;717;51.522;7.266;2022-10-03T07:15:57;15.82;;;7.03;;
1446;SDS011;717;51.522;7.266;2022-10-03T07:19:10;14.88;;;6.93;;
1446;SDS011;717;51.522;7.266;2022-10-03T07:25:12;17.75;;;7.53;;
1446;SDS011;717;51.522;7.266;2022-10-03T07:28:12;14.55;;;6.97;;
1446;SDS011;717;51.522;7.266;2022-10-03T07:31:02;17.25;;;7.15;;
1446;SDS011;717;51.522;7.266;2022-10-03T07:33:48;16.80;;;6.65;;
1446;SDS011;717;51.522;7.266;2022-10-03T07:36:54;16.42;;;7.65;;
1446;SDS011;717;51.522;7.266;2022-10-03T07:40:00;14.07;;;7.45;;
1446;SDS011;717;51.522;7.266;2022-10-03T07:42:44;15.35;;;8.07;;
1446;SDS011;717;51.522;7.266;2022-10-03T07:45:39;13.20;;;6.82;;
1446;SDS011;717;51.522;7.266;2022-10-03T07:51:11;17.52;;;7.47;;
1446;SDS011;717;51.522;7.266;2022-10-03T07:56:59;15.85;;;7.53;;
1446;SDS011;717;51.522;7.266;2022-10-03T07:59:50;15.60;;;7.00;;
1446;SDS011;717;51.522;7.266;2022-10-03T08:12:19;10.48;;;5.53;;
1446;SDS011;717;51.522;7.266;2022-10-03T08:15:14;13.05;;;6.07;;
1446;SDS011;717;51.522;7.266;2022-10-03T08:17:57;12.82;;;6.13;;
1446;SDS011;717;51.522;7.266;2022-10-03T08:20:48;12.80;;;6.13;;
1446;SDS011;717;51.522;7.266;2022-10-03T08:23:43;15.77;;;6.78;;
1446;SDS011;717;51.522;7.266;2022-10-03T08:26:40;15.13;;;5.68;;
1446;SDS011;717;51.522;7.266;2022-10-03T08:29:30;12.98;;;6.07;;
1446;SDS011;717;51.522;7.266;2022-10-03T08:35:07;15.88;;;5.82;;
1446;SDS011;717;51.522;7.266;2022-10-03T08:38:05;11.68;;;5.45;;
1446;SDS011;717;51.522;7.266;2022-10-03T08:41:11;12.60;;;6.05;;
1446;SDS011;717;51.522;7.266;2022-10-03T08:44:34;12.60;;;5.18;;
1446;SDS011;717;51.522;7.266;2022-10-03T08:47:39;14.20;;;5.47;;
1446;SDS011;717;51.522;7.266;2022-10-03T08:50:43;11.15;;;5.55;;
1446;SDS011;717;51.522;7.266;2022-10-03T08:53:24;9.80;;;5.53;;
1446;SDS011;717;51.522;7.266;2022-10-03T08:56:14;11.27;;;5.47;;
1446;SDS011;717;51.522;7.266;2022-10-03T08:59:00;16.27;;;5.10;;
1446;SDS011;717;51.522;7.266;2022-10-03T09:07:51;10.35;;;4.35;;
1446;SDS011;717;51.522;7.266;2022-10-03T09:13:56;9.23;;;4.90;;
1446;SDS011;717;51.522;7.266;2022-10-03T09:16:50;11.48;;;4.70;;
1446;SDS011;717;51.522;7.266;2022-10-03T09:19:34;8.95;;;4.60;;
1446;SDS011;717;51.522;7.266;2022-10-03T09:25:20;8.43;;;4.63;;
1446;SDS011;717;51.522;7.266;2022-10-03T09:28:07;9.02;;;4.30;;
1446;SDS011;717;51.522;7.266;2022-10-03T09:30:52;12.98;;;3.60;;
1446;SDS011;717;51.522;7.266;2022-10-03T09:33:42;8.52;;;3.67;;
1446;SDS011;717;51.522;7.266;2022-10-03T09:36:33;6.28;;;3.00;;
1446;SDS011;717;51.522;7.266;2022-10-03T09:49:03;9.48;;;3.22;;
1446;SDS011;717;51.522;7.266;2022-10-03T09:55:02;9.95;;;3.83;;
1446;SDS011;717;51.522;7.266;2022-10-03T09:57:57;11.55;;;3.40;;
1446;SDS011;717;51.522;7.266;2022-10-03T10:00:39;6.95;;;3.50;;
1446;SDS011;717;51.522;7.266;2022-10-03T10:03:32;7.70;;;3.28;;
1446;SDS011;717;51.522;7.266;2022-10-03T10:06:22;8.05;;;3.00;;
1446;SDS011;717;51.522;7.266;2022-10-03T10:09:22;7.63;;;3.80;;
1446;SDS011;717;51.522;7.266;2022-10-03T10:15:17;8.80;;;3.15;;
1446;SDS011;717;51.522;7.266;2022-10-03T10:18:21;10.32;;;2.38;;
1446;SDS011;717;51.522;7.266;2022-10-03T10:21:20;8.25;;;1.80;;
1446;SDS011;717;51.522;7.266;2022-10-03T10:24:13;8.50;;;1.98;;
1446;SDS011;717;51.522;7.266;2022-10-03T10:27:12;5.97;;;1.83;;
1446;SDS011;717;51.522;7.266;2022-10-03T10:30:23;5.45;;;1.80;;
1446;SDS011;717;51.522;7.266;2022-10-03T10:33:44;6.45;;;1.52;;
1446;SDS011;717;51.522;7.266;2022-10-03T10:43:26;2.75;;;1.10;;
1446;SDS011;717;51.522;7.266;2022-10-03T10:46:20;8.07;;;1.42;;
1446;SDS011;717;51.522;7.266;2022-10-03T11:02:22;3.70;;;1.30;;
1446;SDS011;717;51.522;7.266;2022-10-03T11:05:24;4.18;;;1.30;;
1446;SDS011;717;51.522;7.266;2022-10-03T11:08:36;6.20;;;1.30;;
1446;SDS011;717;51.522;7.266;2022-10-03T11:11:31;5.38;;;1.35;;
1446;SDS011;717;51.522;7.266;2022-10-03T11:17:49;6.40;;;1.35;;
1446;SDS011;717;51.522;7.266;2022-10-03T11:20:59;8.05;;;1.50;;
1446;SDS011;717;51.522;7.266;2022-10-03T11:24:06;5.78;;;1.15;;
1446;SDS011;717;51.522;7.266;2022-10-03T11:26:59;5.85;;;1.20;;
1446;SDS011;717;51.522;7.266;2022-10-03T11:29:58;4.70;;;0.93;;
1446;SDS011;717;51.522;7.266;2022-10-03T11:38:48;4.85;;;0.93;;
1446;SDS011;717;51.522;7.266;2022-10-03T11:41:25;4.93;;;1.42;;
1446;SDS011;717;51.522;7.266;2022-10-03T11:44:18;4.60;;;0.82;;
1446;SDS011;717;51.522;7.266;2022-10-03T11:46:52;1.95;;;0.80;;
1446;SDS011;717;51.522;7.266;2022-10-03T11:49:49;4.25;;;0.65;;
1446;SDS011;717;51.522;7.266;2022-10-03T11:52:50;6.25;;;0.90;;
1446;SDS011;717;51.522;7.266;2022-10-03T11:55:30;3.58;;;0.90;;
1446;SDS011;717;51.522;7.266;2022-10-03T11:58:07;5.10;;;1.20;;
1446;SDS011;717;51.522;7.266;2022-10-03T12:00:52;6.13;;;0.88;;
1446;SDS011;717;51.522;7.266;2022-10-03T12:03:30;2.45;;;0.90;;
1446;SDS011;717;51.522;7.266;2022-10-03T12:06:07;3.17;;;0.80;;
1446;SDS011;717;51.522;7.266;2022-10-03T12:09:01;3.65;;;0.88;;
1446;SDS011;717;51.522;7.266;2022-10-03T12:11:41;2.90;;;0.77;;
1446;SDS011;717;51.522;7.266;2022-10-03T12:14:21;4.45;;;0.90;;
1446;SDS011;717;51.522;7.266;2022-10-03T12:16:59;4.13;;;0.85;;
1446;SDS011;717;51.522;7.266;2022-10-03T12:19:30;4.00;;;0.70;;
1446;SDS011;717;51.522;7.266;2022-10-03T12:22:03;1.63;;;0.50;;
1446;SDS011;717;51.522;7.266;2022-10-03T12:24:36;1.90;;;0.52;;
1446;SDS011;717;51.522;7.266;2022-10-03T12:27:10;3.75;;;0.75;;
1446;SDS011;717;51.522;7.266;2022-10-03T12:29:43;5.95;;;0.90;;
1446;SDS011;717;51.522;7.266;2022-10-03T12:32:19;1.70;;;0.68;;
1446;SDS011;717;51.522;7.266;2022-10-03T12:34:57;2.90;;;0.57;;
1446;SDS011;717;51.522;7.266;2022-10-03T12:37:43;4.10;;;0.98;;
1446;SDS011;717;51.522;7.266;2022-10-03T12:40:21;3.30;;;0.73;;
1446;SDS011;717;51.522;7.266;2022-10-03T12:42:57;2.97;;;0.75;;
1446;SDS011;717;51.522;7.266;2022-10-03T12:45:31;2.90;;;0.70;;
1446;SDS011;717;51.522;7.266;2022-10-03T12:48:11;2.17;;;0.77;;
1446;SDS011;717;51.522;7.266;2022-10-03T12:50:58;5.47;;;0.80;;
1446;SDS011;717;51.522;7.266;2022-10-03T12:53:30;3.10;;;0.68;;
1446;SDS011;717;51.522;7.266;2022-10-03T12:56:05;3.05;;;0.80;;
1446;SDS011;717;51.522;7.266;2022-10-03T12:58:42;1.58;;;0.80;;
1446;SDS011;717;51.522;7.266;2022-10-03T13:01:18;2.42;;;0.63;;
1446;SDS011;717;51.522;7.266;2022-10-03T13:03:57;2.40;;;0.65;;
1446;SDS011;717;51.522;7.266;2022-10-03T13:06:35;4.40;;;1.02;;
1446;SDS011;717;51.522;7.266;2022-10-03T13:09:20;3.78;;;1.23;;
1446;SDS011;717;51.522;7.266;2022-10-03T13:11:56;6.05;;;1.10;;
1446;SDS011;717;51.522;7.266;2022-10-03T13:14:33;4.43;;;1.00;;
1446;SDS011;717;51.522;7.266;2022-10-03T13:17:13;3.97;;;0.82;;
1446;SDS011;717;51.522;7.266;2022-10-03T13:19:49;2.88;;;0.65;;
1446;SDS011;717;51.522;7.266;2022-10-03T13:22:27;4.50;;;0.82;;
1446;SDS011;717;51.522;7.266;2022-10-03T13:25:00;3.92;;;0.73;;
1446;SDS011;717;51.522;7.266;2022-10-03T13:27:35;3.38;;;1.02;;
1446;SDS011;717;51.522;7.266;2022-10-03T13:30:12;2.92;;;0.90;;
1446;SDS011;717;51.522;7.266;2022-10-03T13:32:43;2.38;;;0.60;;
1446;SDS011;717;51.522;7.266;2022-10-03T13:35:19;3.13;;;0.60;;
1446;SDS011;717;51.522;7.266;2022-10-03T13:38:16;3.75;;;0.70;;
1446;SDS011;717;51.522;7.266;2022-10-03T13:41:07;2.88;;;0.90;;
1446;SDS011;717;51.522;7.266;2022-10-03T13:43:43;3.83;;;1.00;;
1446;SDS011;717;51.522;7.266;2022-10-03T13:46:17;3.10;;;0.73;;
1446;SDS011;717;51.522;7.266;2022-10-03T13:48:55;6.05;;;1.05;;
1446;SDS011;717;51.522;7.266;2022-10-03T13:51:26;3.83;;;0.90;;
1446;SDS011;717;51.522;7.266;2022-10-03T13:54:00;2.80;;;0.73;;
1446;SDS011;717;51.522;7.266;2022-10-03T13:56:37;4.03;;;0.90;;
1446;SDS011;717;51.522;7.266;2022-10-03T13:59:20;3.97;;;1.20;;
1446;SDS011;717;51.522;7.266;2022-10-03T14:01:58;4.93;;;1.25;;
1446;SDS011;717;51.522;7.266;2022-10-03T14:04:38;5.18;;;0.95;;
1446;SDS011;717;51.522;7.266;2022-10-03T14:07:25;3.55;;;1.10;;
1446;SDS011;717;51.522;7.266;2022-10-03T14:10:03;3.40;;;0.70;;
1446;SDS011;717;51.522;7.266;2022-10-03T14:12:44;4.15;;;0.60;;
1446;SDS011;717;51.522;7.266;2022-10-03T14:15:23;5.75;;;1.13;;
1446;SDS011;717;51.522;7.266;2022-10-03T14:17:58;2.00;;;0.57;;
1446;SDS011;717;51.522;7.266;2022-10-03T14:20:36;4.97;;;1.45;;
1446;SDS011;717;51.522;7.266;2022-10-03T14:23:25;2.58;;;0.80;;
1446;SDS011;717;51.522;7.266;2022-10-03T14:25:58;4.03;;;0.70;;
1446;SDS011;717;51.522;7.266;2022-10-03T14:28:33;4.30;;;0.90;;
1446;SDS011;717;51.522;7.266;2022-10-03T14:31:05;2.88;;;0.88;;
1446;SDS011;717;51.522;7.266;2022-10-03T14:33:40;3.80;;;0.85;;
1446;SDS011;717;51.522;7.266;2022-10-03T14:36:18;3.05;;;0.98;;
1446;SDS011;717;51.522;7.266;2022-10-03T14:38:55;3.45;;;0.85;;
1446;SDS011;717;51.522;7.266;2022-10-03T14:41:48;3.50;;;0.57;;
1446;SDS011;717;51.522;7.266;2022-10-03T14:44:28;2.75;;;0.82;;
1446;SDS011;717;51.522;7.266;2022-10-03T14:47:06;3.17;;;0.82;;
1446;SDS011;717;51.522;7.266;2022-10-03T14:49:34;4.00;;;1.05;;
1446;SDS011;717;51.522;7.266;2022-10-03T14:52:05;3.63;;;0.85;;
1446;SDS011;717;51.522;7.266;2022-10-03T14:54:47;3.17;;;0.93;;
1446;SDS011;717;51.522;7.266;2022-10-03T14:57:20;2.85;;;0.80;;
1446;SDS011;717;51.522;7.266;2022-10-03T14:59:55;3.67;;;0.95;;
1446;SDS011;717;51.522;7.266;2022-10-03T15:02:25;3.13;;;0.90;;
1446;SDS011;717;51.522;7.266;2022-10-03T15:04:56;4.15;;;0.60;;
1446;SDS011;717;51.522;7.266;2022-10-03T15:07:33;2.97;;;0.88;;
1446;SDS011;717;51.522;7.266;2022-10-03T15:10:04;3.33;;;0.90;;
1446;SDS011;717;51.522;7.266;2022-10-03T15:12:36;3.13;;;0.85;;
1446;SDS011;717;51.522;7.266;2022-10-03T15:15:06;2.15;;;1.05;;
1446;SDS011;717;51.522;7.266;2022-10-03T15:17:43;3.90;;;1.35;;
1446;SDS011;717;51.522;7.266;2022-10-03T15:20:13;2.92;;;1.10;;
1446;SDS011;717;51.522;7.266;2022-10-03T15:22:46;2.85;;;0.98;;
1446;SDS011;717;51.522;7.266;2022-10-03T15:25:17;4.68;;;1.30;;
1446;SDS011;717;51.522;7.266;2022-10-03T15:27:47;6.95;;;1.00;;
1446;SDS011;717;51.522;7.266;2022-10-03T15:30:19;5.38;;;1.30;;
1446;SDS011;717;51.522;7.266;2022-10-03T15:32:49;5.03;;;1.05;;
1446;SDS011;717;51.522;7.266;2022-10-03T15:35:17;4.25;;;0.88;;
1446;SDS011;717;51.522;7.266;2022-10-03T15:37:49;3.28;;;0.80;;
1446;SDS011;717;51.522;7.266;2022-10-03T15:40:20;3.88;;;1.00;;
1446;SDS011;717;51.522;7.266;2022-10-03T15:42:59;2.42;;;0.70;;
1446;SDS011;717;51.522;7.266;2022-10-03T15:45:29;5.05;;;1.15;;
1446;SDS011;717;51.522;7.266;2022-10-03T15:47:59;4.18;;;0.80;;
1446;SDS011;717;51.522;7.266;2022-10-03T15:50:30;1.90;;;0.70;;
1446;SDS011;717;51.522;7.266;2022-10-03T15:53:01;3.30;;;0.90;;
1446;SDS011;717;51.522;7.266;2022-10-03T15:55:35;5.20;;;1.05;;
1446;SDS011;717;51.522;7.266;2022-10-03T15:58:07;3.05;;;0.80;;
1446;SDS011;717;51.522;7.266;2022-10-03T16:00:40;2.65;;;0.70;;
1446;SDS011;717;51.522;7.266;2022-10-03T16:03:09;2.17;;;0.70;;
1446;SDS011;717;51.522;7.266;2022-10-03T16:05:42;4.07;;;1.20;;
1446;SDS011;717;51.522;7.266;2022-10-03T16:08:18;2.92;;;0.85;;
1446;SDS011;717;51.522;7.266;2022-10-03T16:10:50;2.67;;;1.15;;
1446;SDS011;717;51.522;7.266;2022-10-03T16:13:28;2.97;;;0.85;;
1446;SDS011;717;51.522;7.266;2022-10-03T16:16:05;2.20;;;0.68;;
1446;SDS011;717;51.522;7.266;2022-10-03T16:18:45;3.15;;;0.60;;
1446;SDS011;717;51.522;7.266;2022-10-03T16:21:22;3.25;;;0.85;;
1446;SDS011;717;51.522;7.266;2022-10-03T16:23:56;5.50;;;1.05;;
1446;SDS011;717;51.522;7.266;2022-10-03T16:26:25;2.10;;;0.60;;
1446;SDS011;717;51.522;7.266;2022-10-03T16:28:59;2.78;;;0.90;;
1446;SDS011;717;51.522;7.266;2022-10-03T16:31:31;2.78;;;0.70;;
1446;SDS011;717;51.522;7.266;2022-10-03T16:34:04;2.42;;;0.90;;
1446;SDS011;717;51.522;7.266;2022-10-03T16:36:39;3.80;;;0.93;;
1446;SDS011;717;51.522;7.266;2022-10-03T16:39:13;3.85;;;1.02;;
1446;SDS011;717;51.522;7.266;2022-10-03T16:41:45;5.22;;;0.90;;
1446;SDS011;717;51.522;7.266;2022-10-03T16:44:18;3.28;;;0.88;;
1446;SDS011;717;51.522;7.266;2022-10-03T16:46:48;2.50;;;1.10;;
1446;SDS011;717;51.522;7.266;2022-10-03T16:49:29;1.92;;;0.75;;
1446;SDS011;717;51.522;7.266;2022-10-03T16:52:19;2.45;;;0.95;;
1446;SDS011;717;51.522;7.266;2022-10-03T16:54:51;3.33;;;0.90;;
1446;SDS011;717;51.522;7.266;2022-10-03T16:57:24;3.05;;;1.15;;
1446;SDS011;717;51.522;7.266;2022-10-03T16:59:57;2.03;;;0.95;;
1446;SDS011;717;51.522;7.266;2022-10-03T17:02:32;3.10;;;1.00;;
1446;SDS011;717;51.522;7.266;2022-10-03T17:05:04;1.63;;;0.98;;
1446;SDS011;717;51.522;7.266;2022-10-03T17:07:37;2.30;;;0.98;;
1446;SDS011;717;51.522;7.266;2022-10-03T17:10:16;3.70;;;1.17;;
1446;SDS011;717;51.522;7.266;2022-10-03T17:12:54;4.47;;;1.40;;
1446;SDS011;717;51.522;7.266;2022-10-03T17:15:25;7.43;;;1.70;;
1446;SDS011;717;51.522;7.266;2022-10-03T17:17:55;4.85;;;1.52;;
1446;SDS011;717;51.522;7.266;2022-10-03T17:20:35;4.25;;;1.20;;
1446;SDS011;717;51.522;7.266;2022-10-03T17:23:09;2.28;;;1.05;;
1446;SDS011;717;51.522;7.266;2022-10-03T17:25:41;4.43;;;1.33;;
1446;SDS011;717;51.522;7.266;2022-10-03T17:28:20;4.25;;;1.70;;
1446;SDS011;717;51.522;7.266;2022-10-03T17:30:55;3.80;;;1.35;;
1446;SDS011;717;51.522;7.266;2022-10-03T17:33:28;3.22;;;1.15;;
1446;SDS011;717;51.522;7.266;2022-10-03T17:36:04;3.55;;;1.35;;
1446;SDS011;717;51.522;7.266;2022-10-03T17:38:51;3.35;;;1.23;;
1446;SDS011;717;51.522;7.266;2022-10-03T17:41:26;5.70;;;1.73;;
1446;SDS011;717;51.522;7.266;2022-10-03T17:43:59;3.90;;;1.67;;
1446;SDS011;717;51.522;7.266;2022-10-03T17:46:34;3.47;;;1.73;;
1446;SDS011;717;51.522;7.266;2022-10-03T17:49:06;2.75;;;1.58;;
1446;SDS011;717;51.522;7.266;2022-10-03T17:51:47;4.03;;;1.65;;
1446;SDS011;717;51.522;7.266;2022-10-03T17:54:16;3.45;;;1.63;;
1446;SDS011;717;51.522;7.266;2022-10-03T17:56:47;4.50;;;1.63;;
1446;SDS011;717;51.522;7.266;2022-10-03T17:59:19;4.45;;;1.88;;
1446;SDS011;717;51.522;7.266;2022-10-03T18:01:52;3.63;;;1.63;;
1446;SDS011;717;51.522;7.266;2022-10-03T18:04:26;4.25;;;1.90;;
1446;SDS011;717;51.522;7.266;2022-10-03T18:07:00;3.08;;;1.88;;
1446;SDS011;717;51.522;7.266;2022-10-03T18:09:32;4.38;;;2.00;;
1446;SDS011;717;51.522;7.266;2022-10-03T18:12:09;5.40;;;2.78;;
1446;SDS011;717;51.522;7.266;2022-10-03T18:14:49;4.68;;;2.50;;
1446;SDS011;717;51.522;7.266;2022-10-03T18:17:28;5.85;;;2.78;;
1446;SDS011;717;51.522;7.266;2022-10-03T18:20:04;5.78;;;2.97;;
1446;SDS011;717;51.522;7.266;2022-10-03T18:22:53;4.47;;;2.83;;
1446;SDS011;717;51.522;7.266;2022-10-03T18:25:25;4.15;;;3.42;;
1446;SDS011;717;51.522;7.266;2022-10-03T18:28:15;6.18;;;3.45;;
1446;SDS011;717;51.522;7.266;2022-10-03T18:30:48;4.03;;;3.58;;
1446;SDS011;717;51.522;7.266;2022-10-03T18:33:17;4.90;;;3.40;;
1446;SDS011;717;51.522;7.266;2022-10-03T18:35:47;5.57;;;3.55;;
1446;SDS011;717;51.522;7.266;2022-10-03T18:38:18;4.53;;;3.47;;
1446;SDS011;717;51.522;7.266;2022-10-03T18:40:48;5.85;;;3.50;;
1446;SDS011;717;51.522;7.266;2022-10-03T18:43:24;7.18;;;4.13;;
1446;SDS011;717;51.522;7.266;2022-10-03T18:46:08;6.38;;;3.88;;
1446;SDS011;717;51.522;7.266;2022-10-03T18:48:42;5.47;;;3.50;;
1446;SDS011;717;51.522;7.266;2022-10-03T18:51:21;6.80;;;4.72;;
1446;SDS011;717;51.522;7.266;2022-10-03T18:53:57;7.50;;;5.53;;
1446;SDS011;717;51.522;7.266;2022-10-03T18:56:27;7.30;;;5.10;;
1446;SDS011;717;51.522;7.266;2022-10-03T18:59:09;10.48;;;6.22;;
1446;SDS011;717;51.522;7.266;2022-10-03T19:01:42;10.25;;;6.43;;
1446;SDS011;717;51.522;7.266;2022-10-03T19:04:17;7.85;;;7.05;;
1446;SDS011;717;51.522;7.266;2022-10-03T19:06:48;9.07;;;6.80;;
1446;SDS011;717;51.522;7.266;2022-10-03T19:09:18;8.52;;;7.43;;
1446;SDS011;717;51.522;7.266;2022-10-03T19:11:49;7.15;;;6.45;;
1446;SDS011;717;51.522;7.266;2022-10-03T19:14:24;10.60;;;7.00;;
1446;SDS011;717;51.522;7.266;2022-10-03T19:16:59;9.55;;;6.57;;
1446;SDS011;717;51.522;7.266;2022-10-03T19:19:42;8.00;;;6.00;;
1446;SDS011;717;51.522;7.266;2022-10-03T19:22:18;8.00;;;6.00;;